createdAt,value
2018-05-26T00:00:12.369Z,74.6032
2018-05-26T00:01:18.064Z,74.3522
2018-05-26T00:02:23.499Z,74.1012
2018-05-26T00:03:29.492Z,72.4233
2018-05-26T00:04:34.922Z,75.1053
2018-05-26T00:05:40.375Z,74.8543
2018-05-26T00:06:45.572Z,75.2744
2018-05-26T00:07:50.744Z,74.6032
2018-05-26T00:08:56.177Z,75.2744
2018-05-26T00:10:01.411Z,75.2744
2018-05-26T00:11:06.281Z,74.6032
2018-05-26T00:12:10.588Z,75.1053
2018-05-26T00:13:15.993Z,75.5254
2018-05-26T00:14:20.582Z,74.8543
2018-05-26T00:15:25.898Z,75.2744
2018-05-26T00:16:31.053Z,74.6032
2018-05-26T00:17:35.911Z,75.2744
2018-05-26T00:18:41.742Z,74.8543
2018-05-26T00:19:46.599Z,75.2744
2018-05-26T00:20:52.031Z,75.1053
2018-05-26T00:21:57.710Z,74.8543
2018-05-26T00:23:02.866Z,74.8543
2018-05-26T00:24:08.020Z,75.2744
2018-05-26T00:25:13.816Z,74.3522
2018-05-26T00:26:18.977Z,75.1053
2018-05-26T00:27:24.133Z,75.1053
2018-05-26T00:28:44.589Z,74.8543
2018-05-26T00:29:50.038Z,74.6032
2018-05-26T00:30:55.861Z,74.1012
2018-05-26T00:32:01.296Z,74.6032
2018-05-26T00:33:06.185Z,74.1012
2018-05-26T00:34:11.464Z,73.5965
2018-05-26T00:35:16.625Z,74.1012
2018-05-26T00:36:20.940Z,74.8543
2018-05-26T00:37:26.722Z,74.3522
2018-05-26T00:38:31.592Z,74.8543
2018-05-26T00:39:36.541Z,74.3522
2018-05-26T00:40:41.979Z,75.1053
2018-05-26T00:41:47.137Z,74.8543
2018-05-26T00:42:52.540Z,74.8543
2018-05-26T00:43:57.988Z,75.5254
2018-05-26T00:45:02.875Z,73.8475
2018-05-26T00:46:07.996Z,75.7764
2018-05-26T00:47:13.154Z,74.8543
2018-05-26T00:48:18.299Z,74.1012
2018-05-26T00:49:23.848Z,74.3522
2018-05-26T00:50:28.756Z,74.3522
2018-05-26T00:51:34.493Z,73.8475
2018-05-26T00:52:39.829Z,74.3522
2018-05-26T00:53:44.704Z,74.6032
2018-05-26T00:54:50.323Z,73.5965
2018-05-26T00:55:55.486Z,74.3522
2018-05-26T00:57:00.641Z,74.8543
2018-05-26T00:58:06.423Z,74.3522
2018-05-26T00:59:11.606Z,74.6032
2018-05-26T01:00:16.479Z,73.8475
2018-05-26T01:01:22.415Z,73.3455
2018-05-26T01:02:27.846Z,73.0945
2018-05-26T01:03:33.451Z,72.4233
2018-05-26T01:04:38.608Z,73.0945
2018-05-26T01:05:43.778Z,73.3455
2018-05-26T01:06:49.269Z,73.8475
2018-05-26T01:07:54.704Z,72.8435
2018-05-26T01:08:59.588Z,73.0945
2018-05-26T01:10:04.713Z,73.5965
2018-05-26T01:11:09.893Z,72.8435
2018-05-26T01:12:15.333Z,73.0945
2018-05-26T01:13:20.453Z,73.5965
2018-05-26T01:14:25.337Z,73.3455
2018-05-26T01:15:30.422Z,73.5965
2018-05-26T01:16:35.864Z,73.0945
2018-05-26T01:17:41.024Z,73.3455
2018-05-26T01:18:46.856Z,73.3455
2018-05-26T01:19:52.027Z,72.8435
2018-05-26T01:20:57.174Z,72.8435
2018-05-26T01:22:02.732Z,72.8435
2018-05-26T01:23:08.182Z,73.5965
2018-05-26T01:24:13.339Z,72.6743
2018-05-26T01:25:19.181Z,73.0945
2018-05-26T01:26:24.342Z,73.0945
2018-05-26T01:27:30.231Z,72.6743
2018-05-26T01:28:35.385Z,72.1723
2018-05-26T01:29:40.579Z,72.6743
2018-05-26T01:30:46.435Z,72.4233
2018-05-26T01:31:51.589Z,73.0945
2018-05-26T01:32:56.466Z,72.8435
2018-05-26T01:34:02.297Z,72.6743
2018-05-26T01:35:06.323Z,73.0945
2018-05-26T01:36:11.202Z,72.6743
2018-05-26T01:37:16.604Z,72.1723
2018-05-26T01:38:22.038Z,71.9213
2018-05-26T01:39:27.515Z,72.4233
2018-05-26T01:40:32.680Z,72.6743
2018-05-26T01:41:38.113Z,72.4233
2018-05-26T01:42:43.427Z,72.6743
2018-05-26T01:43:48.876Z,73.0945
2018-05-26T01:44:53.752Z,73.5965
2018-05-26T01:45:59.434Z,73.0945
2018-05-26T01:47:04.023Z,72.8435
2018-05-26T01:48:09.186Z,73.0945
2018-05-26T01:49:15.105Z,72.8435
2018-05-26T01:50:19.951Z,72.8435
2018-05-26T01:51:26.156Z,73.0945
2018-05-26T01:52:31.312Z,73.0945
2018-05-26T01:53:36.181Z,73.3455
2018-05-26T01:54:41.174Z,73.0945
2018-05-26T01:55:46.610Z,73.3455
2018-05-26T01:56:51.761Z,72.8435
2018-05-26T01:57:57.611Z,73.8475
2018-05-26T01:59:02.472Z,73.5965
2018-05-26T02:00:07.348Z,73.3455
2018-05-26T02:01:12.468Z,73.5965
2018-05-26T02:02:17.621Z,73.3455
2018-05-26T02:03:22.508Z,71.6703
2018-05-26T02:04:42.935Z,72.8435
2018-05-26T02:05:48.402Z,73.8475
2018-05-26T02:06:54.082Z,73.5965
2018-05-26T02:07:59.522Z,73.8475
2018-05-26T02:09:04.685Z,73.3455
2018-05-26T02:10:10.385Z,74.1012
2018-05-26T02:11:15.251Z,73.5965
2018-05-26T02:12:20.683Z,73.3455
2018-05-26T02:13:26.136Z,73.8475
2018-05-26T02:14:30.722Z,74.3522
2018-05-26T02:15:36.566Z,73.5965
2018-05-26T02:16:41.725Z,73.5965
2018-05-26T02:17:47.160Z,73.0945
2018-05-26T02:18:52.437Z,75.1053
2018-05-26T02:19:56.749Z,74.3522
2018-05-26T02:21:01.613Z,73.8475
2018-05-26T02:22:06.728Z,73.3455
2018-05-26T02:23:12.156Z,74.1012
2018-05-26T02:24:17.609Z,73.0945
2018-05-26T02:25:22.538Z,74.1012
2018-05-26T02:26:27.408Z,73.0945
2018-05-26T02:27:33.289Z,74.1012
2018-05-26T02:28:38.185Z,73.5965
2018-05-26T02:29:43.638Z,74.3522
2018-05-26T02:30:49.635Z,74.3522
2018-05-26T02:31:54.507Z,73.8475
2018-05-26T02:32:59.678Z,74.3522
2018-05-26T02:34:05.073Z,74.1012
2018-05-26T02:35:10.522Z,74.3522
2018-05-26T02:36:15.953Z,73.8475
2018-05-26T02:37:21.460Z,74.8543
2018-05-26T02:38:26.893Z,75.5254
2018-05-26T02:39:32.373Z,74.8543
2018-05-26T02:40:37.524Z,74.3522
2018-05-26T02:41:42.955Z,75.3589
2018-05-26T02:42:48.842Z,75.1053
2018-05-26T02:43:54.320Z,75.5254
2018-05-26T02:44:59.203Z,75.3589
2018-05-26T02:46:04.931Z,76.0275
2018-05-26T02:47:10.073Z,75.3589
2018-05-26T02:48:14.971Z,75.1053
2018-05-26T02:49:20.805Z,75.5254
2018-05-26T02:50:26.256Z,75.1053
2018-05-26T02:51:31.757Z,74.8543
2018-05-26T02:52:36.340Z,74.6032
2018-05-26T02:53:41.490Z,74.6032
2018-05-26T02:54:46.697Z,75.5254
2018-05-26T02:55:52.168Z,75.1053
2018-05-26T02:56:57.044Z,74.1012
2018-05-26T02:58:01.919Z,74.6032
2018-05-26T02:59:06.807Z,74.6032
2018-05-26T03:00:12.263Z,74.6032
2018-05-26T03:01:17.685Z,75.1053
2018-05-26T03:02:23.114Z,74.6032
2018-05-26T03:03:28.288Z,73.0945
2018-05-26T03:04:33.436Z,75.1053
2018-05-26T03:05:38.606Z,74.8543
2018-05-26T03:06:44.243Z,74.8543
2018-05-26T03:07:49.400Z,74.3522
2018-05-26T03:08:54.582Z,74.3522
2018-05-26T03:10:00.432Z,73.3455
2018-05-26T03:11:05.605Z,74.3522
2018-05-26T03:12:11.041Z,75.1053
2018-05-26T03:13:16.176Z,74.1012
2018-05-26T03:14:21.320Z,74.8543
2018-05-26T03:15:27.424Z,74.3522
2018-05-26T03:16:32.867Z,73.5965
2018-05-26T03:17:38.027Z,74.3522
2018-05-26T03:18:43.346Z,73.8475
2018-05-26T03:19:48.792Z,74.3522
2018-05-26T03:20:54.210Z,74.3522
2018-05-26T03:22:00.137Z,74.3522
2018-05-26T03:23:04.676Z,74.6032
2018-05-26T03:24:09.580Z,74.1012
2018-05-26T03:25:14.708Z,73.8475
2018-05-26T03:26:19.861Z,74.1012
2018-05-26T03:27:39.885Z,74.1012
2018-05-26T03:28:45.060Z,74.3522
2018-05-26T03:29:50.495Z,73.5965
2018-05-26T03:30:56.074Z,73.5965
2018-05-26T03:32:01.233Z,72.9254
2018-05-26T03:33:06.100Z,74.1012
2018-05-26T03:34:11.506Z,73.5965
2018-05-26T03:35:16.384Z,73.0945
2018-05-26T03:36:21.752Z,73.8475
2018-05-26T03:37:27.826Z,74.1012
2018-05-26T03:38:33.263Z,74.1012
2018-05-26T03:39:39.051Z,73.3455
2018-05-26T03:40:43.929Z,73.8475
2018-05-26T03:41:49.354Z,74.1012
2018-05-26T03:42:54.622Z,73.3455
2018-05-26T03:43:59.499Z,73.3455
2018-05-26T03:45:04.664Z,74.1012
2018-05-26T03:46:10.354Z,73.179
2018-05-26T03:47:15.804Z,73.3455
2018-05-26T03:48:21.246Z,72.6743
2018-05-26T03:49:26.097Z,73.5965
2018-05-26T03:50:31.283Z,72.9254
2018-05-26T03:51:36.789Z,72.6743
2018-05-26T03:52:42.290Z,73.179
2018-05-26T03:53:47.145Z,73.179
2018-05-26T03:54:52.268Z,72.6743
2018-05-26T03:55:57.445Z,72.9254
2018-05-26T03:57:02.603Z,73.179
2018-05-26T03:58:08.001Z,72.1723
2018-05-26T03:59:12.925Z,71.4166
2018-05-26T04:00:17.798Z,71.9213
2018-05-26T04:01:23.320Z,73.179
2018-05-26T04:02:27.913Z,72.1723
2018-05-26T04:03:33.379Z,70.83
2018-05-26T04:04:38.259Z,71.6703
2018-05-26T04:05:43.427Z,72.4233
2018-05-26T04:06:48.566Z,71.9213
2018-05-26T04:07:53.999Z,70.7481
2018-05-26T04:08:58.326Z,72.1723
2018-05-26T04:10:03.444Z,72.6743
2018-05-26T04:11:08.037Z,71.4166
2018-05-26T04:12:13.206Z,71.4166
2018-05-26T04:13:19.039Z,71.9213
2018-05-26T04:14:24.195Z,71.1656
2018-05-26T04:15:29.784Z,72.1723
2018-05-26T04:16:35.220Z,71.4166
2018-05-26T04:17:40.659Z,71.6703
2018-05-26T04:18:46.344Z,71.6703
2018-05-26T04:19:51.788Z,71.4166
2018-05-26T04:20:56.958Z,71.6703
2018-05-26T04:22:02.083Z,71.1656
2018-05-26T04:23:06.426Z,71.4166
2018-05-26T04:24:11.874Z,70.9146
2018-05-26T04:25:17.663Z,71.1656
2018-05-26T04:26:22.543Z,71.1656
2018-05-26T04:27:28.402Z,70.83
2018-05-26T04:28:33.564Z,71.1656
2018-05-26T04:29:38.708Z,71.4166
2018-05-26T04:30:43.566Z,70.077
2018-05-26T04:31:48.997Z,70.9146
2018-05-26T04:32:54.433Z,70.83
2018-05-26T04:34:00.111Z,70.328
2018-05-26T04:35:05.291Z,70.83
2018-05-26T04:36:10.143Z,70.077
2018-05-26T04:37:15.839Z,70.83
2018-05-26T04:38:21.273Z,70.83
2018-05-26T04:39:41.606Z,70.9146
2018-05-26T04:40:46.470Z,70.077
2018-05-26T04:41:51.906Z,69.8259
2018-05-26T04:42:56.930Z,69.8259
2018-05-26T04:44:01.806Z,69.5749
2018-05-26T04:45:06.962Z,69.3239
2018-05-26T04:46:12.665Z,68.8192
2018-05-26T04:47:17.549Z,69.5749
2018-05-26T04:48:22.422Z,70.077
2018-05-26T04:49:27.613Z,69.3239
2018-05-26T04:50:33.051Z,69.0702
2018-05-26T04:51:38.326Z,69.8259
2018-05-26T04:52:43.485Z,69.0702
2018-05-26T04:53:48.357Z,69.3239
2018-05-26T04:54:53.752Z,69.0702
2018-05-26T04:55:58.907Z,69.0702
2018-05-26T04:57:03.489Z,68.5682
2018-05-26T04:58:08.998Z,68.4017
2018-05-26T04:59:13.868Z,68.5682
2018-05-26T05:00:19.014Z,68.4017
2018-05-26T05:01:23.557Z,68.8192
2018-05-26T05:02:28.991Z,68.5682
2018-05-26T05:03:34.675Z,68.8192
2018-05-26T05:04:39.823Z,68.5682
2018-05-26T05:05:45.244Z,68.8192
2018-05-26T05:06:50.672Z,69.0702
2018-05-26T05:07:56.054Z,68.8192
2018-05-26T05:09:01.228Z,69.8259
2018-05-26T05:10:05.880Z,68.8192
2018-05-26T05:11:11.028Z,69.3239
2018-05-26T05:12:16.455Z,69.3239
2018-05-26T05:13:21.949Z,68.1507
2018-05-26T05:14:26.821Z,68.4017
2018-05-26T05:15:32.325Z,68.5682
2018-05-26T05:16:37.510Z,68.8192
2018-05-26T05:17:42.943Z,68.5682
2018-05-26T05:18:48.355Z,68.4017
2018-05-26T05:19:53.785Z,68.8192
2018-05-26T05:20:58.942Z,68.8192
2018-05-26T05:22:04.434Z,68.3172
2018-05-26T05:23:09.591Z,68.1507
2018-05-26T05:24:15.020Z,68.8192
2018-05-26T05:25:20.675Z,68.3172
2018-05-26T05:26:26.125Z,67.897
2018-05-26T05:27:31.812Z,67.646
2018-05-26T05:28:37.258Z,68.3172
2018-05-26T05:29:42.460Z,68.1507
2018-05-26T05:30:48.136Z,68.5682
2018-05-26T05:31:53.004Z,68.1507
2018-05-26T05:32:58.480Z,68.3172
2018-05-26T05:34:03.875Z,67.646
2018-05-26T05:35:08.743Z,68.8192
2018-05-26T05:36:14.188Z,69.0702
2018-05-26T05:37:20.027Z,67.395
2018-05-26T05:38:25.170Z,67.897
2018-05-26T05:39:30.567Z,68.5682
2018-05-26T05:40:35.724Z,68.1507
2018-05-26T05:41:41.161Z,68.1507
2018-05-26T05:42:46.320Z,66.893
2018-05-26T05:43:51.760Z,66.6419
2018-05-26T05:44:56.929Z,66.3909
2018-05-26T05:46:02.354Z,67.395
2018-05-26T05:47:07.509Z,65.6352
2018-05-26T05:48:12.950Z,67.395
2018-05-26T05:49:18.367Z,67.144
2018-05-26T05:50:23.220Z,67.646
2018-05-26T05:51:28.937Z,67.144
2018-05-26T05:52:34.397Z,67.897
2018-05-26T05:53:39.299Z,67.646
2018-05-26T05:54:44.539Z,66.893
2018-05-26T05:55:49.689Z,66.6419
2018-05-26T05:56:54.577Z,65.6352
2018-05-26T05:57:59.698Z,67.395
2018-05-26T05:59:05.591Z,66.893
2018-05-26T06:00:11.050Z,66.6419
2018-05-26T06:01:16.737Z,66.3909
2018-05-26T06:02:22.170Z,67.395
2018-05-26T06:03:27.927Z,66.6419
2018-05-26T06:04:32.802Z,66.6419
2018-05-26T06:05:37.975Z,66.3909
2018-05-26T06:06:43.783Z,66.893
2018-05-26T06:07:48.956Z,67.395
2018-05-26T06:08:53.826Z,66.1399
2018-05-26T06:09:59.217Z,66.6419
2018-05-26T06:11:04.360Z,66.6419
2018-05-26T06:12:09.526Z,66.893
2018-05-26T06:13:15.208Z,66.3909
2018-05-26T06:14:20.372Z,66.3909
2018-05-26T06:15:40.613Z,65.8862
2018-05-26T06:16:45.487Z,66.893
2018-05-26T06:17:50.684Z,65.8862
2018-05-26T06:18:56.290Z,66.6419
2018-05-26T06:20:01.445Z,64.7157
2018-05-26T06:21:06.327Z,66.6419
2018-05-26T06:22:11.892Z,65.6352
2018-05-26T06:23:16.828Z,66.1399
2018-05-26T06:24:22.274Z,66.1399
2018-05-26T06:25:28.244Z,65.1332
2018-05-26T06:26:33.800Z,65.1332
2018-05-26T06:27:39.536Z,65.1332
2018-05-26T06:28:44.402Z,65.6352
2018-05-26T06:29:49.862Z,65.1332
2018-05-26T06:30:55.366Z,64.9667
2018-05-26T06:32:00.534Z,65.1332
2018-05-26T06:33:05.682Z,64.211
2018-05-26T06:34:10.838Z,64.9667
2018-05-26T06:35:15.150Z,64.462
2018-05-26T06:36:20.304Z,64.8821
2018-05-26T06:37:25.580Z,66.1399
2018-05-26T06:38:31.013Z,64.9667
2018-05-26T06:39:36.615Z,64.7157
2018-05-26T06:40:42.046Z,65.6352
2018-05-26T06:41:47.191Z,65.1332
2018-05-26T06:42:52.322Z,64.7157
2018-05-26T06:43:57.772Z,65.3842
2018-05-26T06:45:02.939Z,64.7157
2018-05-26T06:46:08.065Z,64.9667
2018-05-26T06:47:13.217Z,65.1332
2018-05-26T06:48:18.649Z,64.7157
2018-05-26T06:49:24.203Z,64.462
2018-05-26T06:50:29.110Z,64.7157
2018-05-26T06:51:34.505Z,64.462
2018-05-26T06:52:39.936Z,64.462
2018-05-26T06:53:44.813Z,64.462
2018-05-26T06:54:50.418Z,64.462
2018-05-26T06:55:55.612Z,64.8821
2018-05-26T06:57:00.796Z,65.1332
2018-05-26T06:58:06.589Z,64.6311
2018-05-26T06:59:11.751Z,63.96
2018-05-26T07:00:17.007Z,64.462
2018-05-26T07:01:22.242Z,64.7157
2018-05-26T07:02:27.390Z,64.8821
2018-05-26T07:03:32.798Z,65.6352
2018-05-26T07:04:38.241Z,64.8821
2018-05-26T07:05:43.878Z,64.462
2018-05-26T07:06:49.715Z,65.3842
2018-05-26T07:07:54.867Z,65.1332
2018-05-26T07:09:00.313Z,63.96
2018-05-26T07:10:05.722Z,64.7157
2018-05-26T07:11:10.879Z,65.6352
2018-05-26T07:12:16.033Z,64.462
2018-05-26T07:13:21.449Z,64.462
2018-05-26T07:14:26.026Z,63.4579
2018-05-26T07:15:31.783Z,63.709
2018-05-26T07:16:37.217Z,64.7157
2018-05-26T07:17:42.096Z,63.709
2018-05-26T07:18:47.589Z,63.4579
2018-05-26T07:19:53.022Z,64.211
2018-05-26T07:20:58.178Z,64.462
2018-05-26T07:22:02.469Z,63.96
2018-05-26T07:23:07.656Z,64.8821
2018-05-26T07:24:13.119Z,64.211
2018-05-26T07:25:18.624Z,63.709
2018-05-26T07:26:23.780Z,64.7157
2018-05-26T07:27:29.720Z,64.7157
2018-05-26T07:28:34.309Z,64.462
2018-05-26T07:29:39.170Z,63.96
2018-05-26T07:30:44.790Z,64.8821
2018-05-26T07:31:50.232Z,64.211
2018-05-26T07:32:55.676Z,64.8821
2018-05-26T07:34:01.041Z,64.462
2018-05-26T07:35:06.207Z,64.462
2018-05-26T07:36:11.354Z,63.96
2018-05-26T07:37:17.055Z,64.462
2018-05-26T07:38:22.493Z,63.96
2018-05-26T07:39:28.179Z,64.7157
2018-05-26T07:40:33.328Z,63.96
2018-05-26T07:41:38.934Z,64.462
2018-05-26T07:42:44.613Z,63.709
2018-05-26T07:43:50.049Z,64.462
2018-05-26T07:44:55.204Z,64.7157
2018-05-26T07:46:00.888Z,63.4579
2018-05-26T07:47:05.765Z,64.8821
2018-05-26T07:48:10.933Z,64.211
2018-05-26T07:49:16.379Z,63.709
2018-05-26T07:50:21.534Z,63.96
2018-05-26T07:51:27.126Z,64.7157
2018-05-26T07:52:32.349Z,63.96
2018-05-26T07:53:37.502Z,63.709
2018-05-26T07:54:42.721Z,63.709
2018-05-26T07:55:47.615Z,65.1332
2018-05-26T07:56:52.488Z,65.1332
2018-05-26T07:57:58.156Z,64.8821
2018-05-26T07:59:03.324Z,64.7157
2018-05-26T08:00:08.632Z,65.3842
2018-05-26T08:01:14.225Z,65.8862
2018-05-26T08:02:19.377Z,64.8821
2018-05-26T08:03:39.437Z,66.1399
2018-05-26T08:04:44.868Z,64.8821
2018-05-26T08:05:50.025Z,65.3842
2018-05-26T08:06:55.544Z,64.7157
2018-05-26T08:08:00.992Z,65.6352
2018-05-26T08:09:05.867Z,65.3842
2018-05-26T08:10:11.650Z,65.1332
2018-05-26T08:11:16.242Z,65.8862
2018-05-26T08:12:21.396Z,65.6352
2018-05-26T08:13:26.636Z,65.6352
2018-05-26T08:14:31.792Z,66.893
2018-05-26T08:15:37.685Z,66.1399
2018-05-26T08:16:42.833Z,65.8862
2018-05-26T08:17:47.701Z,66.1399
2018-05-26T08:18:53.305Z,66.1399
2018-05-26T08:19:58.465Z,66.3909
2018-05-26T08:21:03.897Z,65.3842
2018-05-26T08:22:08.753Z,66.3909
2018-05-26T08:23:13.919Z,66.3909
2018-05-26T08:24:18.777Z,65.8862
2018-05-26T08:25:24.222Z,66.1399
2018-05-26T08:26:29.147Z,66.1399
2018-05-26T08:27:34.686Z,65.8862
2018-05-26T08:28:40.132Z,65.6352
2018-05-26T08:29:45.003Z,65.1332
2018-05-26T08:30:50.120Z,65.1332
2018-05-26T08:31:55.269Z,65.1332
2018-05-26T08:33:00.155Z,65.3842
2018-05-26T08:34:05.648Z,66.3909
2018-05-26T08:35:10.227Z,65.3842
2018-05-26T08:36:14.541Z,64.8821
2018-05-26T08:37:19.934Z,65.3842
2018-05-26T08:38:25.078Z,65.1332
2018-05-26T08:39:31.417Z,65.1332
2018-05-26T08:40:36.594Z,65.3842
2018-05-26T08:41:42.033Z,65.6352
2018-05-26T08:42:47.429Z,65.1332
2018-05-26T08:43:52.582Z,64.7157
2018-05-26T08:44:58.015Z,65.1332
2018-05-26T08:46:03.041Z,64.8821
2018-05-26T08:47:07.345Z,64.8821
2018-05-26T08:48:12.211Z,65.6352
2018-05-26T08:49:17.608Z,65.8862
2018-05-26T08:50:22.760Z,65.8862
2018-05-26T08:51:28.150Z,65.6352
2018-05-26T08:52:33.006Z,65.1332
2018-05-26T08:53:38.168Z,65.1332
2018-05-26T08:54:43.770Z,65.1332
2018-05-26T08:55:48.977Z,64.462
2018-05-26T08:56:54.136Z,64.6311
2018-05-26T08:57:59.550Z,64.8821
2018-05-26T08:59:04.717Z,64.462
2018-05-26T09:00:10.158Z,64.211
2018-05-26T09:01:15.614Z,64.462
2018-05-26T09:02:20.888Z,64.211
2018-05-26T09:03:40.354Z,64.211
2018-05-26T09:04:45.517Z,65.1332
2018-05-26T09:05:50.669Z,65.1332
2018-05-26T09:06:55.520Z,63.96
2018-05-26T09:08:00.980Z,64.6311
2018-05-26T09:09:05.848Z,64.462
2018-05-26T09:10:11.360Z,64.462
2018-05-26T09:11:16.618Z,64.462
2018-05-26T09:12:21.515Z,63.709
2018-05-26T09:13:41.725Z,63.96
2018-05-26T09:14:46.879Z,64.211
2018-05-26T09:15:52.734Z,64.3801
2018-05-26T09:16:58.168Z,64.6311
2018-05-26T09:18:03.082Z,65.1332
2018-05-26T09:19:08.884Z,64.8821
2018-05-26T09:20:13.465Z,64.8821
2018-05-26T09:21:18.911Z,65.1332
2018-05-26T09:22:23.884Z,64.211
2018-05-26T09:23:29.318Z,65.1332
2018-05-26T09:24:35.029Z,65.6352
2018-05-26T09:25:40.183Z,65.1332
2018-05-26T09:26:45.340Z,64.6311
2018-05-26T09:27:51.024Z,65.3842
2018-05-26T09:28:56.429Z,65.8862
2018-05-26T09:30:01.578Z,64.3801
2018-05-26T09:31:06.886Z,63.96
2018-05-26T09:32:12.046Z,64.1291
2018-05-26T09:33:17.494Z,64.3801
2018-05-26T09:34:22.721Z,64.3801
2018-05-26T09:35:27.886Z,64.6311
2018-05-26T09:36:33.441Z,63.709
2018-05-26T09:37:38.873Z,63.8781
2018-05-26T09:38:44.320Z,64.8821
2018-05-26T09:39:49.727Z,63.4579
2018-05-26T09:40:55.180Z,63.8781
2018-05-26T09:42:00.821Z,64.1291
2018-05-26T09:43:06.345Z,63.4579
2018-05-26T09:44:11.516Z,64.3801
2018-05-26T09:45:16.678Z,64.1291
2018-05-26T09:46:22.065Z,64.3801
2018-05-26T09:47:26.966Z,63.627
2018-05-26T09:48:32.897Z,64.1291
2018-05-26T09:49:38.344Z,64.1291
2018-05-26T09:50:43.503Z,64.3801
2018-05-26T09:51:49.175Z,64.3801
2018-05-26T09:52:54.046Z,63.8781
2018-05-26T09:53:59.220Z,64.3801
2018-05-26T09:55:04.717Z,64.3801
2018-05-26T09:56:10.106Z,63.3734
2018-05-26T09:57:14.974Z,64.8821
2018-05-26T09:58:20.655Z,64.1291
2018-05-26T09:59:26.090Z,64.8821
2018-05-26T10:00:31.370Z,65.3842
2018-05-26T10:01:36.526Z,64.6311
2018-05-26T10:02:41.976Z,64.3801
2018-05-26T10:03:46.816Z,65.1332
2018-05-26T10:04:51.683Z,64.1291
2018-05-26T10:05:57.118Z,64.6311
2018-05-26T10:07:02.245Z,64.6311
2018-05-26T10:08:07.128Z,63.8781
2018-05-26T10:09:12.587Z,64.1291
2018-05-26T10:10:18.280Z,64.1291
2018-05-26T10:11:23.713Z,64.8821
2018-05-26T10:12:29.612Z,64.8821
2018-05-26T10:13:35.056Z,64.3801
2018-05-26T10:14:40.620Z,64.1291
2018-05-26T10:15:46.125Z,64.3801
2018-05-26T10:16:51.588Z,64.8821
2018-05-26T10:17:57.038Z,64.6311
2018-05-26T10:19:01.615Z,64.1291
2018-05-26T10:20:05.934Z,64.8821
2018-05-26T10:21:11.363Z,63.8781
2018-05-26T10:22:16.604Z,64.8821
2018-05-26T10:23:21.485Z,64.3801
2018-05-26T10:24:26.905Z,64.6311
2018-05-26T10:25:32.352Z,64.1291
2018-05-26T10:26:37.785Z,63.8781
2018-05-26T10:27:43.581Z,63.627
2018-05-26T10:28:49.020Z,64.1291
2018-05-26T10:29:54.617Z,64.3801
2018-05-26T10:31:00.372Z,65.1332
2018-05-26T10:32:05.805Z,65.1332
2018-05-26T10:33:10.671Z,63.8781
2018-05-26T10:34:16.124Z,64.3801
2018-05-26T10:35:21.012Z,64.8821
2018-05-26T10:36:26.994Z,63.3734
2018-05-26T10:37:32.424Z,63.1224
2018-05-26T10:38:37.864Z,63.8781
2018-05-26T10:39:43.700Z,63.3734
2018-05-26T10:40:48.851Z,63.8781
2018-05-26T10:41:54.285Z,64.1291
2018-05-26T10:42:59.779Z,64.8821
2018-05-26T10:44:04.664Z,64.3801
2018-05-26T10:45:10.098Z,64.8821
2018-05-26T10:46:15.723Z,65.2996
2018-05-26T10:47:21.193Z,65.2996
2018-05-26T10:48:41.672Z,64.8821
2018-05-26T10:49:46.829Z,64.6311
2018-05-26T10:50:52.267Z,64.1291
2018-05-26T10:51:58.116Z,64.1291
2018-05-26T10:53:03.571Z,64.3801
2018-05-26T10:54:08.465Z,64.3801
2018-05-26T10:55:13.947Z,64.3801
2018-05-26T10:56:19.099Z,64.3801
2018-05-26T10:57:23.699Z,65.5533
2018-05-26T10:58:29.228Z,65.0486
2018-05-26T10:59:34.380Z,65.5533
2018-05-26T11:00:39.704Z,65.2996
2018-05-26T11:01:44.013Z,65.2996
2018-05-26T11:02:49.460Z,65.8043
2018-05-26T11:03:54.740Z,65.0486
2018-05-26T11:05:00.193Z,65.2996
2018-05-26T11:06:05.362Z,65.2996
2018-05-26T11:07:10.871Z,64.3801
2018-05-26T11:08:16.032Z,64.6311
2018-05-26T11:09:21.168Z,65.0486
2018-05-26T11:10:26.463Z,64.6311
2018-05-26T11:11:31.329Z,66.0553
2018-05-26T11:12:36.936Z,65.5533
2018-05-26T11:13:42.087Z,65.2996
2018-05-26T11:14:46.967Z,65.5533
2018-05-26T11:15:52.961Z,65.5533
2018-05-26T11:16:57.569Z,66.3064
2018-05-26T11:18:03.408Z,66.3064
2018-05-26T11:19:08.823Z,66.0553
2018-05-26T11:20:14.395Z,65.5533
2018-05-26T11:21:19.874Z,65.8043
2018-05-26T11:22:25.269Z,66.0553
2018-05-26T11:23:29.591Z,65.8043
2018-05-26T11:24:35.365Z,65.2996
2018-05-26T11:25:40.760Z,64.3801
2018-05-26T11:26:45.937Z,65.8043
2018-05-26T11:27:51.055Z,65.8043
2018-05-26T11:28:56.398Z,65.0486
2018-05-26T11:30:01.996Z,65.8043
2018-05-26T11:31:07.742Z,65.8043
2018-05-26T11:32:12.673Z,64.7976
2018-05-26T11:33:18.119Z,65.2996
2018-05-26T11:34:23.686Z,65.8043
2018-05-26T11:35:28.293Z,65.5533
2018-05-26T11:36:33.487Z,65.2996
2018-05-26T11:37:38.921Z,65.2996
2018-05-26T11:38:44.094Z,65.0486
2018-05-26T11:39:49.879Z,64.2956
2018-05-26T11:40:55.332Z,64.7976
2018-05-26T11:42:00.796Z,65.0486
2018-05-26T11:43:06.352Z,65.0486
2018-05-26T11:44:11.497Z,65.2996
2018-05-26T11:45:16.074Z,65.0486
2018-05-26T11:46:21.764Z,65.8043
2018-05-26T11:47:26.352Z,65.5533
2018-05-26T11:48:32.244Z,66.5574
2018-05-26T11:49:37.112Z,66.5574
2018-05-26T11:50:42.274Z,66.3064
2018-05-26T11:51:47.391Z,66.7238
2018-05-26T11:52:52.539Z,66.4728
2018-05-26T11:53:57.970Z,67.2285
2018-05-26T11:55:02.931Z,66.9775
2018-05-26T11:56:08.379Z,67.4795
2018-05-26T11:57:13.258Z,67.2285
2018-05-26T11:58:18.665Z,67.9816
2018-05-26T11:59:23.258Z,67.4795
2018-05-26T12:00:28.933Z,66.5574
2018-05-26T12:01:34.102Z,66.9775
2018-05-26T12:02:38.695Z,66.9775
2018-05-26T12:03:43.804Z,66.7238
2018-05-26T12:04:49.021Z,68.2326
2018-05-26T12:05:53.901Z,66.7238
2018-05-26T12:06:59.452Z,66.9775
2018-05-26T12:08:03.470Z,67.2285
2018-05-26T12:09:08.339Z,67.2285
2018-05-26T12:10:13.891Z,68.2326
2018-05-26T12:11:19.391Z,66.9775
2018-05-26T12:12:23.695Z,66.9775
2018-05-26T12:13:29.778Z,66.2218
2018-05-26T12:14:34.934Z,66.7238
2018-05-26T12:15:40.334Z,67.2285
2018-05-26T12:16:45.767Z,67.2285
2018-05-26T12:17:50.940Z,67.2285
2018-05-26T12:18:56.211Z,67.7306
2018-05-26T12:20:01.365Z,67.2285
2018-05-26T12:21:06.798Z,67.2285
2018-05-26T12:22:12.580Z,66.4728
2018-05-26T12:23:17.735Z,66.7238
2018-05-26T12:24:22.891Z,65.5533
2018-05-26T12:25:28.314Z,66.2218
2018-05-26T12:26:33.494Z,66.7238
2018-05-26T12:27:38.657Z,65.9708
2018-05-26T12:28:43.821Z,66.4728
2018-05-26T12:29:49.247Z,66.7238
2018-05-26T12:30:55.045Z,65.9708
2018-05-26T12:31:59.647Z,66.7238
2018-05-26T12:33:05.090Z,66.7238
2018-05-26T12:34:10.507Z,67.9816
2018-05-26T12:35:15.097Z,67.9816
2018-05-26T12:36:20.536Z,67.4795
2018-05-26T12:37:25.823Z,67.2285
2018-05-26T12:38:31.256Z,67.2285
2018-05-26T12:39:36.761Z,67.7306
2018-05-26T12:40:41.928Z,67.2285
2018-05-26T12:41:46.817Z,67.4795
2018-05-26T12:42:52.605Z,67.2285
2018-05-26T12:43:58.044Z,68.2326
2018-05-26T12:45:02.846Z,66.9775
2018-05-26T12:46:07.974Z,67.9816
2018-05-26T12:47:12.533Z,68.6527
2018-05-26T12:48:17.420Z,68.4017
2018-05-26T12:49:22.699Z,67.7306
2018-05-26T12:50:28.007Z,66.9775
2018-05-26T12:51:33.144Z,68.4017
2018-05-26T12:52:38.018Z,67.7306
2018-05-26T12:53:43.464Z,68.6527
2018-05-26T12:54:48.610Z,68.6527
2018-05-26T12:55:53.779Z,67.7306
2018-05-26T12:56:58.942Z,67.9816
2018-05-26T12:58:04.544Z,68.1507
2018-05-26T12:59:09.689Z,68.1507
2018-05-26T13:00:15.123Z,68.4017
2018-05-26T13:01:20.535Z,67.897
2018-05-26T13:02:25.965Z,67.7306
2018-05-26T13:03:31.133Z,67.7306
2018-05-26T13:04:36.309Z,67.7306
2018-05-26T13:05:41.459Z,68.6527
2018-05-26T13:06:46.867Z,67.897
2018-05-26T13:07:52.029Z,67.897
2018-05-26T13:08:56.913Z,67.646
2018-05-26T13:10:02.134Z,68.4017
2018-05-26T13:11:07.308Z,67.897
2018-05-26T13:12:12.742Z,68.4017
2018-05-26T13:13:18.576Z,68.6527
2018-05-26T13:14:23.442Z,68.4017
2018-05-26T13:15:29.166Z,68.1507